createdAt,value
2023-02-23T00:01:50.355Z,100961.09
2023-02-23T00:04:21.122Z,100958.56
2023-02-23T00:06:52.386Z,100958.56
2023-02-23T00:09:25.688Z,100956.94
2023-02-23T00:12:00.337Z,100956.13
2023-02-23T00:14:31.989Z,100954.53
2023-02-23T00:17:02.542Z,100955.34
2023-02-23T00:19:33.675Z,100951.81
2023-02-23T00:22:03.650Z,100958.06
2023-02-23T00:24:33.688Z,100957.56
2023-02-23T00:27:07.130Z,100955.34
2023-02-23T00:29:40.733Z,100948.28
2023-02-23T00:32:11.398Z,100949.91
2023-02-23T00:34:41.990Z,100947.50
2023-02-23T00:37:12.483Z,100945.09
2023-02-23T00:39:42.392Z,100942.88
2023-02-23T00:42:15.714Z,100938.06
2023-02-23T00:44:47.728Z,100947.34
2023-02-23T00:47:17.852Z,100942.53
2023-02-23T00:49:47.984Z,100944.75
2023-02-23T00:52:18.027Z,100933.91
2023-02-23T00:54:48.106Z,100938.53
2023-02-23T00:57:20.700Z,100942.06
2023-02-23T00:59:50.654Z,100939.47
2023-02-23T01:02:20.600Z,100939.78
2023-02-23T01:04:50.974Z,100939.00
2023-02-23T01:07:21.053Z,100939.00
2023-02-23T01:09:51.254Z,100936.59
2023-02-23T01:12:23.886Z,100940.44
2023-02-23T01:14:54.139Z,100933.38
2023-02-23T01:17:24.218Z,100941.03
2023-02-23T01:19:55.464Z,100933.03
2023-02-23T01:22:25.418Z,100938.97
2023-02-23T01:24:55.472Z,100938.66
2023-02-23T01:27:29.464Z,100938.66
2023-02-23T01:29:59.479Z,100941.69
2023-02-23T01:32:29.558Z,100938.16
2023-02-23T01:34:59.555Z,100941.50
2023-02-23T01:37:29.557Z,100938.78
2023-02-23T01:39:59.504Z,100938.31
2023-02-23T01:42:32.138Z,100928.56
2023-02-23T01:45:35.166Z,100932.69
2023-02-23T01:48:12.649Z,100933.19
2023-02-23T01:50:48.820Z,100937.50
2023-02-23T01:53:21.719Z,100934.00
2023-02-23T01:55:55.247Z,100931.88
2023-02-23T01:58:30.066Z,100931.88
2023-02-23T02:01:03.806Z,100936.19
2023-02-23T02:03:38.358Z,100931.41
2023-02-23T02:06:11.744Z,100932.69
2023-02-23T02:08:45.649Z,100943.88
2023-02-23T02:11:26.395Z,100931.41
2023-02-23T02:14:03.521Z,100936.84
2023-02-23T02:16:45.817Z,100935.84
2023-02-23T02:19:58.775Z,100934.56
2023-02-23T02:23:16.352Z,100929.47
2023-02-23T02:26:05.589Z,100933.44
2023-02-23T02:29:09.515Z,100934.75
2023-02-23T02:32:15.120Z,100941.78
2023-02-23T02:35:14.096Z,100934.13
2023-02-23T02:38:01.987Z,100934.31
2023-02-23T02:40:40.369Z,100935.09
2023-02-23T02:43:24.501Z,100938.31
2023-02-23T02:45:58.785Z,100936.88
2023-02-23T02:48:42.380Z,100930.63
2023-02-23T02:51:21.488Z,100928.38
2023-02-23T02:54:09.472Z,100923.47
2023-02-23T02:56:42.114Z,100930.19
2023-02-23T02:59:28.832Z,100925.53
2023-02-23T03:02:12.245Z,100927.78
2023-02-23T03:04:54.800Z,100928.25
2023-02-23T03:07:46.691Z,100926.66
2023-02-23T03:10:43.745Z,100923.94
2023-02-23T03:13:34.506Z,100926.19
2023-02-23T03:16:27.770Z,100929.22
2023-02-23T03:19:26.754Z,100933.03
2023-02-23T03:22:15.872Z,100922.00
2023-02-23T03:25:06.314Z,100929.50
2023-02-23T03:28:01.441Z,100937.16
2023-02-23T03:30:52.846Z,100933.66
2023-02-23T03:33:45.649Z,100939.06
2023-02-23T03:36:32.416Z,100938.56
2023-02-23T03:39:20.259Z,100940.00
2023-02-23T03:42:04.477Z,100950.88
2023-02-23T03:44:55.440Z,100940.81
2023-02-23T03:47:44.913Z,100945.75
2023-02-23T03:50:33.457Z,100946.88
2023-02-23T03:53:18.460Z,100948.16
2023-02-23T03:56:06.411Z,100939.84
2023-02-23T03:58:54.022Z,100949.09
2023-02-23T04:01:42.447Z,100947.00
2023-02-23T04:04:26.424Z,100939.66
2023-02-23T04:07:11.484Z,100946.38
2023-02-23T04:09:54.028Z,100949.09
2023-02-23T04:12:45.486Z,100951.31
2023-02-23T04:15:20.947Z,100942.69
2023-02-23T04:17:55.670Z,100959.47
2023-02-23T04:20:28.184Z,100949.72
2023-02-23T04:22:58.459Z,100954.34
2023-02-23T04:25:28.826Z,100952.44
2023-02-23T04:27:59.165Z,100955.16
2023-02-23T04:30:29.809Z,100962.50
2023-02-23T04:33:02.724Z,100949.56
2023-02-23T04:35:33.340Z,100961.22
2023-02-23T04:38:05.339Z,100959.59
2023-02-23T04:40:35.762Z,100960.72
2023-02-23T04:43:06.296Z,100963.44
2023-02-23T04:45:36.920Z,100962.81
2023-02-23T04:48:10.362Z,100965.53
2023-02-23T04:50:43.070Z,100962.03
2023-02-23T04:53:13.265Z,100967.75
2023-02-23T04:55:43.461Z,100966.66
2023-02-23T04:58:15.639Z,100958.00
2023-02-23T05:00:47.626Z,100967.25
2023-02-23T05:03:20.584Z,100960.22
2023-02-23T05:05:50.773Z,100964.06
2023-02-23T05:08:21.036Z,100967.25
2023-02-23T05:10:51.133Z,100972.69
2023-02-23T05:13:21.238Z,100972.69
2023-02-23T05:15:51.946Z,100966.94
2023-02-23T05:18:27.476Z,100964.06
2023-02-23T05:21:04.524Z,100965.78
2023-02-23T05:23:35.242Z,100975.25
2023-02-23T05:26:06.529Z,100972.34
2023-02-23T05:28:38.904Z,100977.75
2023-02-23T05:31:11.664Z,100970.72
2023-02-23T05:33:46.036Z,100974.72
2023-02-23T05:36:18.361Z,100967.69
2023-02-23T05:38:49.901Z,100966.28
2023-02-23T05:41:22.665Z,100967.91
2023-02-23T05:43:54.843Z,100970.47
2023-02-23T05:46:27.717Z,100969.97
2023-02-23T05:49:03.546Z,100970.34
2023-02-23T05:51:37.101Z,100973.84
2023-02-23T05:54:07.879Z,100970.81
2023-02-23T05:56:37.919Z,100972.91
2023-02-23T05:59:08.230Z,100973.25
2023-02-23T06:01:38.892Z,100982.66
2023-02-23T06:04:14.374Z,100982.97
2023-02-23T06:06:45.587Z,100977.22
2023-02-23T06:09:16.103Z,100983.66
2023-02-23T06:11:46.253Z,100978.84
2023-02-23T06:14:16.635Z,100990.69
2023-02-23T06:16:49.153Z,100991.28
2023-02-23T06:19:22.206Z,100985.38
2023-02-23T06:21:53.294Z,100998.97
2023-02-23T06:24:24.213Z,100988.41
2023-02-23T06:26:55.146Z,100994.16
2023-02-23T06:29:25.400Z,100993.19
2023-02-23T06:31:55.847Z,101003.56
2023-02-23T06:34:29.170Z,101010.72
2023-02-23T06:36:59.428Z,101002.69
2023-02-23T06:39:29.635Z,101015.19
2023-02-23T06:42:00.556Z,101016.91
2023-02-23T06:44:30.779Z,101018.31
2023-02-23T06:47:06.096Z,101033.03
2023-02-23T06:49:40.807Z,101028.50
2023-02-23T06:52:13.818Z,101039.00
2023-02-23T06:54:44.742Z,101035.78
2023-02-23T06:57:14.944Z,101039.13
2023-02-23T06:59:45.484Z,101038.25
2023-02-23T07:02:16.937Z,101034.03
2023-02-23T07:04:51.090Z,101041.69
2023-02-23T07:07:25.062Z,101048.34
2023-02-23T07:09:55.238Z,101039.41
2023-02-23T07:12:29.086Z,101047.34
2023-02-23T07:14:59.254Z,101054.38
2023-02-23T07:17:29.300Z,101059.94
2023-02-23T07:20:02.042Z,101049.19
2023-02-23T07:22:34.332Z,101060.66
2023-02-23T07:25:04.852Z,101059.06
2023-02-23T07:27:35.174Z,101057.44
2023-02-23T07:30:06.057Z,101064.50
2023-02-23T07:32:38.000Z,101069.09
2023-02-23T07:35:13.768Z,101078.75
2023-02-23T07:37:43.792Z,101077.94
2023-02-23T07:40:15.247Z,101081.19
2023-02-23T07:42:45.468Z,101074.94
2023-02-23T07:45:15.685Z,101072.34
2023-02-23T07:47:45.832Z,101074.56
2023-02-23T07:50:18.646Z,101086.50
2023-02-23T07:52:48.683Z,101091.41
2023-02-23T07:55:18.671Z,101097.66
2023-02-23T07:57:48.750Z,101095.25
2023-02-23T08:00:19.548Z,101090.63
2023-02-23T08:02:49.453Z,101100.03
2023-02-23T08:05:22.799Z,101102.47
2023-02-23T08:07:53.525Z,101099.78
2023-02-23T08:10:23.622Z,101103.28
2023-02-23T08:12:53.792Z,101104.56
2023-02-23T08:15:23.735Z,101104.88
2023-02-23T08:17:53.871Z,101114.13
2023-02-23T08:20:27.964Z,101111.22
2023-02-23T08:22:58.729Z,101112.63
2023-02-23T08:25:29.338Z,101112.91
2023-02-23T08:28:04.726Z,101112.91
2023-02-23T08:30:38.742Z,101112.69
2023-02-23T08:33:08.779Z,101115.41
2023-02-23T08:35:41.468Z,101117.00
2023-02-23T08:38:11.462Z,101120.75
2023-02-23T08:40:41.797Z,101116.94
2023-02-23T08:43:11.814Z,101123.97
2023-02-23T08:45:41.932Z,101127.16
2023-02-23T08:48:11.963Z,101129.09
2023-02-23T08:50:44.552Z,101122.84
2023-02-23T08:53:14.591Z,101124.97
2023-02-23T08:55:44.609Z,101120.53
2023-02-23T08:58:14.875Z,101129.19
2023-02-23T09:00:44.937Z,101128.59
2023-02-23T09:03:15.044Z,101133.38
2023-02-23T09:05:47.884Z,101132.91
2023-02-23T09:08:18.839Z,101132.41
2023-02-23T09:10:48.775Z,101140.44
2023-02-23T09:13:18.840Z,101134.41
2023-02-23T09:15:49.084Z,101137.72
2023-02-23T09:18:19.206Z,101137.22
2023-02-23T09:20:52.035Z,101143.44
2023-02-23T09:23:22.220Z,101144.25
2023-02-23T09:25:52.150Z,101157.94
2023-02-23T09:28:24.305Z,101147.88
2023-02-23T09:30:54.376Z,101160.34
2023-02-23T09:33:24.559Z,101159.03
2023-02-23T09:35:57.227Z,101151.88
2023-02-23T09:38:27.436Z,101155.00
2023-02-23T09:40:57.926Z,101154.91
2023-02-23T09:43:35.173Z,101156.50
2023-02-23T09:46:17.152Z,101153.78
2023-02-23T09:48:47.237Z,101161.31
2023-02-23T09:51:24.694Z,101167.53
2023-02-23T09:53:58.276Z,101163.94
2023-02-23T09:56:36.074Z,101173.56
2023-02-23T09:59:10.013Z,101180.59
2023-02-23T10:02:08.507Z,101182.81
2023-02-23T10:04:43.821Z,101182.19
2023-02-23T10:07:23.822Z,101188.03
2023-02-23T10:10:13.581Z,101189.63
2023-02-23T10:12:53.462Z,101193.28
2023-02-23T10:15:32.002Z,101198.72
2023-02-23T10:18:17.893Z,101195.47
2023-02-23T10:20:53.866Z,101196.78
2023-02-23T10:23:32.012Z,101201.81
2023-02-23T10:26:05.343Z,101201.81
2023-02-23T10:28:39.198Z,101203.22
2023-02-23T10:31:26.355Z,101203.22
2023-02-23T10:33:58.852Z,101202.00
2023-02-23T10:36:40.596Z,101200.91
2023-02-23T10:39:16.337Z,101204.13
2023-02-23T10:41:47.261Z,101214.59
2023-02-23T10:44:22.998Z,101213.16
2023-02-23T10:46:57.396Z,101208.34
2023-02-23T10:49:32.801Z,101208.63
2023-02-23T10:52:03.224Z,101204.22
2023-02-23T10:54:47.900Z,101216.78
2023-02-23T10:57:28.099Z,101208.47
2023-02-23T11:00:32.927Z,101215.97
2023-02-23T11:03:06.327Z,101212.38
2023-02-23T11:05:47.354Z,101213.38
2023-02-23T11:08:30.382Z,101215.31
2023-02-23T11:11:09.286Z,101218.81
2023-02-23T11:13:42.634Z,101222.03
2023-02-23T11:16:16.048Z,101219.41
2023-02-23T11:18:54.936Z,101222.72
2023-02-23T11:21:29.772Z,101222.72
2023-02-23T11:24:02.389Z,101224.81
2023-02-23T11:26:41.344Z,101223.53
2023-02-23T11:29:24.236Z,101218.41
2023-02-23T11:31:57.023Z,101223.13
2023-02-23T11:34:32.891Z,101220.91
2023-02-23T11:37:07.088Z,101218.81
2023-02-23T11:39:38.799Z,101215.31
2023-02-23T11:42:19.887Z,101214.78
2023-02-23T11:45:06.218Z,101216.09
2023-02-23T11:47:41.447Z,101215.97
2023-02-23T11:50:24.046Z,101216.59
2023-02-23T11:53:01.126Z,101205.34
2023-02-23T11:55:33.213Z,101217.59
2023-02-23T11:58:28.652Z,101218.81
2023-02-23T12:01:00.006Z,101213.78
2023-02-23T12:03:33.029Z,101207.97
2023-02-23T12:06:03.109Z,101208.06
2023-02-23T12:08:42.509Z,101204.31
2023-02-23T12:11:18.420Z,101199.13
2023-02-23T12:13:57.027Z,101199.13
2023-02-23T12:16:31.320Z,101200.91
2023-02-23T12:19:06.298Z,101203.03
2023-02-23T12:21:39.009Z,101198.09
2023-02-23T12:24:27.609Z,101203.34
2023-02-23T12:27:02.259Z,101212.78
2023-02-23T12:29:44.864Z,101210.16
2023-02-23T12:32:17.652Z,101212.78
2023-02-23T12:34:55.013Z,101209.56
2023-02-23T12:37:37.544Z,101206.31
2023-02-23T12:40:19.601Z,101208.53
2023-02-23T12:42:59.710Z,101211.75
2023-02-23T12:45:41.545Z,101207.44
2023-02-23T12:48:21.624Z,101207.44
2023-02-23T12:50:55.650Z,101206.94
2023-02-23T12:53:32.218Z,101207.75
2023-02-23T12:56:15.981Z,101204.22
2023-02-23T12:58:54.516Z,101204.53
2023-02-23T13:01:31.068Z,101209.16
2023-02-23T13:04:22.641Z,101203.94
2023-02-23T13:07:03.747Z,101201.13
2023-02-23T13:09:46.663Z,101201.91
2023-02-23T13:12:39.416Z,101214.19
2023-02-23T13:15:22.452Z,101207.03
2023-02-23T13:18:01.721Z,101208.16
2023-02-23T13:20:39.096Z,101214.38
2023-02-23T13:23:17.308Z,101214.38
2023-02-23T13:25:55.835Z,101217.31
2023-02-23T13:28:39.598Z,101210.78
2023-02-23T13:31:28.535Z,101212.38
2023-02-23T13:34:04.421Z,101210.56
2023-02-23T13:36:37.130Z,101214.69
2023-02-23T13:39:27.317Z,101220.59
2023-02-23T13:42:10.748Z,101217.59
2023-02-23T13:44:47.457Z,101217.59
2023-02-23T13:47:34.931Z,101221.00
2023-02-23T13:50:16.569Z,101210.38
2023-02-23T13:52:49.447Z,101215.97
2023-02-23T13:55:54.374Z,101207.34
2023-02-23T13:58:31.909Z,101208.63
2023-02-23T14:01:19.151Z,101207.34
2023-02-23T14:03:56.988Z,101211.66
2023-02-23T14:06:32.661Z,101207.97
2023-02-23T14:09:10.454Z,101216.19
2023-02-23T14:11:52.238Z,101213.06
2023-02-23T14:14:47.400Z,101220.00
2023-02-23T14:17:41.627Z,101225.63
2023-02-23T14:20:45.895Z,101219.63
2023-02-23T14:23:51.469Z,101221.00
2023-02-23T14:26:43.934Z,101217.59
2023-02-23T14:29:35.010Z,101211.56
2023-02-23T14:32:27.450Z,101215.00
2023-02-23T14:34:59.992Z,101215.00
2023-02-23T14:37:34.104Z,101214.78
2023-02-23T14:40:14.734Z,101218.00
2023-02-23T14:42:49.098Z,101220.59
2023-02-23T14:45:25.785Z,101221.94
2023-02-23T14:48:00.069Z,101216.19
2023-02-23T14:50:32.617Z,101222.59
2023-02-23T14:53:04.547Z,101221.53
2023-02-23T14:55:38.279Z,101213.66
2023-02-23T14:58:25.848Z,101216.19
2023-02-23T15:00:55.818Z,101218.59
2023-02-23T15:03:25.964Z,101219.41
2023-02-23T15:05:59.810Z,101220.59
2023-02-23T15:08:32.934Z,101221.72
2023-02-23T15:11:09.820Z,101227.13
2023-02-23T15:13:44.035Z,101221.22
2023-02-23T15:16:19.225Z,101224.44
2023-02-23T15:18:49.277Z,101227.13
2023-02-23T15:21:22.864Z,101218.59
2023-02-23T15:23:55.044Z,101228.88
2023-02-23T15:26:33.093Z,101228.88
2023-02-23T15:29:09.841Z,101235.69
2023-02-23T15:31:41.324Z,101240.13
2023-02-23T15:34:13.281Z,101229.34
2023-02-23T15:36:44.459Z,101232.16
2023-02-23T15:39:20.377Z,101226.25
2023-02-23T15:41:53.659Z,101217.59
2023-02-23T15:44:32.247Z,101223.03
2023-02-23T15:47:13.678Z,101226.84
2023-02-23T15:49:44.117Z,101221.22
2023-02-23T15:52:19.996Z,101224.81
2023-02-23T15:54:57.017Z,101217.19
2023-02-23T15:57:33.509Z,101226.13
2023-02-23T16:00:12.093Z,101223.72
2023-02-23T16:02:44.033Z,101222.63
2023-02-23T16:05:24.013Z,101221.09
2023-02-23T16:08:06.330Z,101215.38
2023-02-23T16:10:48.193Z,101222.72
2023-02-23T16:13:24.883Z,101226.44
2023-02-23T16:15:58.221Z,101219.91
2023-02-23T16:18:41.549Z,101216.47
2023-02-23T16:21:17.281Z,101231.44
2023-02-23T16:23:50.902Z,101226.28
2023-02-23T16:26:24.304Z,101228.00
2023-02-23T16:29:00.924Z,101236.72
2023-02-23T16:31:44.942Z,101224.06
2023-02-23T16:34:24.086Z,101223.53
2023-02-23T16:36:58.143Z,101230.00
2023-02-23T16:39:30.047Z,101231.50
2023-02-23T16:42:01.579Z,101224.97
2023-02-23T16:44:42.859Z,101234.00
2023-02-23T16:47:29.389Z,101230.41
2023-02-23T16:50:00.785Z,101225.16
2023-02-23T16:52:32.815Z,101226.00
2023-02-23T16:55:04.983Z,101227.03
2023-02-23T16:57:42.138Z,101231.88
2023-02-23T17:00:20.700Z,101235.66
2023-02-23T17:02:50.975Z,101238.91
2023-02-23T17:05:24.273Z,101238.38
2023-02-23T17:07:54.841Z,101246.81
2023-02-23T17:10:29.713Z,101243.91
2023-02-23T17:13:04.467Z,101242.72
2023-02-23T17:15:39.698Z,101248.13
2023-02-23T17:18:09.595Z,101247.31
2023-02-23T17:20:39.531Z,101247.53
2023-02-23T17:23:09.690Z,101257.88
2023-02-23T17:25:42.718Z,101249.22
2023-02-23T17:28:12.598Z,101260.19
2023-02-23T17:30:45.486Z,101265.06
2023-02-23T17:33:16.014Z,101270.47
2023-02-23T17:35:47.032Z,101264.56
2023-02-23T17:38:21.614Z,101271.59
2023-02-23T17:40:51.745Z,101265.66
2023-02-23T17:43:24.052Z,101264.84
2023-02-23T17:45:57.605Z,101268.38
2023-02-23T17:48:28.589Z,101266.16
2023-02-23T17:51:01.391Z,101269.41
2023-02-23T17:53:31.712Z,101275.91
2023-02-23T17:56:02.047Z,101268.88
2023-02-23T17:58:31.982Z,101270.19
2023-02-23T18:01:07.099Z,101276.47
2023-02-23T18:03:39.120Z,101272.63
2023-02-23T18:06:11.284Z,101278.06
2023-02-23T18:08:42.658Z,101284.59
2023-02-23T18:11:13.475Z,101283.59
2023-02-23T18:13:43.338Z,101284.81
2023-02-23T18:16:16.293Z,101276.84
2023-02-23T18:18:48.666Z,101279.06
2023-02-23T18:21:21.406Z,101277.53
2023-02-23T18:23:52.211Z,101276.50
2023-02-23T18:26:24.960Z,101274.88
2023-02-23T18:28:57.178Z,101275.50
2023-02-23T18:31:30.953Z,101276.59
2023-02-23T18:34:02.235Z,101282.09
2023-02-23T18:36:35.638Z,101284.28
2023-02-23T18:39:08.918Z,101282.59
2023-02-23T18:41:39.212Z,101287.94
2023-02-23T18:44:11.351Z,101283.03
2023-02-23T18:46:44.536Z,101279.75
2023-02-23T18:49:16.941Z,101279.75
2023-02-23T18:51:46.971Z,101278.63
2023-02-23T18:54:19.030Z,101273.41
2023-02-23T18:56:50.960Z,101270.94
2023-02-23T18:59:20.932Z,101276.34
2023-02-23T19:01:53.596Z,101274.13
2023-02-23T19:04:23.526Z,101271.94
2023-02-23T19:06:53.529Z,101267.59
2023-02-23T19:09:23.722Z,101270.94
2023-02-23T19:11:53.757Z,101269.31
2023-02-23T19:14:40.834Z,101262.50
2023-02-23T19:17:16.269Z,101274.13
2023-02-23T19:19:46.460Z,101268.13
2023-02-23T19:22:16.455Z,101267.31
2023-02-23T19:24:48.458Z,101271.94
2023-02-23T19:27:18.771Z,101269.22
2023-02-23T19:29:48.786Z,101272.72
2023-02-23T19:32:21.453Z,101276.78
2023-02-23T19:34:51.565Z,101271.34
2023-02-23T19:37:21.614Z,101270.31
2023-02-23T19:39:51.658Z,101268.13
2023-02-23T19:42:21.966Z,101270.31
2023-02-23T19:44:51.961Z,101272.72
2023-02-23T19:47:24.530Z,101270.53
2023-02-23T19:49:55.255Z,101261.31
2023-02-23T19:52:28.942Z,101274.94
2023-02-23T19:54:58.859Z,101273.84
2023-02-23T19:57:28.733Z,101266.50
2023-02-23T19:59:58.729Z,101272.53
2023-02-23T20:02:31.422Z,101264.16
2023-02-23T20:05:01.919Z,101267.97
2023-02-23T20:07:31.823Z,101271.50
2023-02-23T20:10:05.816Z,101273.72
2023-02-23T20:12:36.111Z,101271.06
2023-02-23T20:15:07.204Z,101278.69
2023-02-23T20:17:40.260Z,101279.69
2023-02-23T20:20:12.645Z,101276.16
2023-02-23T20:22:45.053Z,101281.59
2023-02-23T20:25:18.087Z,101284.38
2023-02-23T20:27:49.089Z,101286.66
2023-02-23T20:30:20.700Z,101286.38
2023-02-23T20:32:53.532Z,101284.28
2023-02-23T20:35:26.631Z,101289.84
2023-02-23T20:37:56.849Z,101299.78
2023-02-23T20:40:27.612Z,101303.09
2023-02-23T20:42:57.940Z,101293.97
2023-02-23T20:45:28.736Z,101295.13
2023-02-23T20:48:03.408Z,101289.78
2023-02-23T20:50:34.144Z,101295.31
2023-02-23T20:53:04.564Z,101304.53
2023-02-23T20:55:35.918Z,101300.91
2023-02-23T20:58:05.957Z,101300.44
2023-02-23T21:00:36.145Z,101306.47
2023-02-23T21:03:09.154Z,101309.94
2023-02-23T21:05:43.580Z,101304.53
2023-02-23T21:08:14.083Z,101298.88
2023-02-23T21:10:44.617Z,101300.53
2023-02-23T21:13:14.613Z,101300.88
2023-02-23T21:15:46.028Z,101303.56
2023-02-23T21:18:18.805Z,101293.56
2023-02-23T21:20:48.771Z,101293.44
2023-02-23T21:23:20.653Z,101293.44
2023-02-23T21:25:53.257Z,101289.19
2023-02-23T21:28:23.202Z,101288.38
2023-02-23T21:30:53.263Z,101285.41
2023-02-23T21:33:25.981Z,101293.44
2023-02-23T21:35:58.999Z,101295.88
2023-02-23T21:38:29.180Z,101306.94
2023-02-23T21:40:59.202Z,101292.81
2023-02-23T21:43:29.504Z,101288.28
2023-02-23T21:45:59.459Z,101288.28
2023-02-23T21:48:35.998Z,101297.25
2023-02-23T21:51:07.390Z,101284.81
2023-02-23T21:53:37.929Z,101287.53
2023-02-23T21:56:12.005Z,101276.75
2023-02-23T21:58:43.097Z,101288.16
2023-02-23T22:01:15.046Z,101283.41
2023-02-23T22:03:47.747Z,101289.94
2023-02-23T22:06:19.345Z,101278.31
2023-02-23T22:08:50.436Z,101280.78
2023-02-23T22:11:24.968Z,101287.72
2023-02-23T22:13:59.492Z,101279.13
2023-02-23T22:16:31.468Z,101279.69
2023-02-23T22:19:04.719Z,101285.34
2023-02-23T22:21:36.917Z,101291.81
2023-02-23T22:24:07.813Z,101280.69
2023-02-23T22:26:39.933Z,101272.25
2023-02-23T22:29:12.245Z,101277.34
2023-02-23T22:31:42.801Z,101276.47
2023-02-23T22:34:15.593Z,101272.91
2023-02-23T22:36:46.703Z,101268.59
2023-02-23T22:39:18.956Z,101278.66
2023-02-23T22:41:49.876Z,101272.44
2023-02-23T22:44:21.585Z,101272.97
2023-02-23T22:46:53.346Z,101270.25
2023-02-23T22:49:27.263Z,101268.66
2023-02-23T22:51:57.217Z,101268.16
2023-02-23T22:54:27.162Z,101261.75
2023-02-23T22:56:57.336Z,101266.78
2023-02-23T22:59:28.996Z,101289.88
2023-02-23T23:02:00.526Z,101275.59
2023-02-23T23:04:34.647Z,101277.19
2023-02-23T23:07:06.476Z,101269.84
2023-02-23T23:09:39.748Z,101274.69
2023-02-23T23:12:12.051Z,101282.28
2023-02-23T23:14:42.387Z,101280.66
2023-02-23T23:17:14.065Z,101288.47
2023-02-23T23:19:47.165Z,101290.09
2023-02-23T23:22:17.653Z,101287.78
2023-02-23T23:24:49.205Z,101281.31
2023-02-23T23:27:20.132Z,101284.84
2023-02-23T23:29:50.890Z,101284.31
2023-02-23T23:32:27.987Z,101279.44
2023-02-23T23:35:01.687Z,101280.53
2023-02-23T23:37:31.880Z,101276.75
2023-02-23T23:40:05.601Z,101270.81
2023-02-23T23:42:35.542Z,101271.34
2023-02-23T23:45:09.756Z,101270.28
2023-02-23T23:47:39.749Z,101265.41
2023-02-23T23:50:13.889Z,101263.81
2023-02-23T23:52:45.200Z,101261.06
2023-02-23T23:55:18.290Z,101255.41
2023-02-23T23:57:48.316Z,101253.00
